createdAt,value
2019-02-05T00:00:08.518Z,3.16
2019-02-05T00:01:08.484Z,3.14
2019-02-05T00:02:08.461Z,3.10
2019-02-05T00:03:08.440Z,3.22
2019-02-05T00:04:08.429Z,3.13
2019-02-05T00:05:08.682Z,3.14
2019-02-05T00:06:08.388Z,3.13
2019-02-05T00:07:08.428Z,3.14
2019-02-05T00:08:08.410Z,3.16
2019-02-05T00:09:08.364Z,3.11
2019-02-05T00:10:08.439Z,3.01
2019-02-05T00:11:08.355Z,3.07
2019-02-05T00:12:08.359Z,3.23
2019-02-05T00:13:08.337Z,3.25
2019-02-05T00:14:08.321Z,3.23
2019-02-05T00:15:08.269Z,3.25
2019-02-05T00:16:08.368Z,3.21
2019-02-05T00:17:08.368Z,3.25
2019-02-05T00:18:08.287Z,3.23
2019-02-05T00:19:08.260Z,3.21
2019-02-05T00:20:08.271Z,3.16
2019-02-05T00:21:08.260Z,3.31
2019-02-05T00:22:08.296Z,3.25
2019-02-05T00:23:08.209Z,3.23
2019-02-05T00:24:08.212Z,3.21
2019-02-05T00:25:08.194Z,3.28
2019-02-05T00:26:08.192Z,3.32
2019-02-05T00:27:08.240Z,3.36
2019-02-05T00:28:08.179Z,3.31
2019-02-05T00:29:08.170Z,3.34
2019-02-05T00:30:08.111Z,3.29
2019-02-05T00:31:08.155Z,3.28
2019-02-05T00:32:08.732Z,3.32
2019-02-05T00:33:08.222Z,3.23
2019-02-05T00:34:08.114Z,3.28
2019-02-05T00:35:08.089Z,3.32
2019-02-05T00:36:08.076Z,3.44
2019-02-05T00:37:08.069Z,3.31
2019-02-05T00:38:08.734Z,3.32
2019-02-05T00:39:08.057Z,3.37
2019-02-05T00:40:08.038Z,3.31
2019-02-05T00:41:08.157Z,3.31
2019-02-05T00:42:08.012Z,3.28
2019-02-05T00:43:07.981Z,3.36
2019-02-05T00:44:08.080Z,3.28
2019-02-05T00:45:07.959Z,3.26
2019-02-05T00:46:07.949Z,3.26
2019-02-05T00:47:07.936Z,3.34
2019-02-05T00:48:07.910Z,3.32
2019-02-05T00:49:07.926Z,3.28
2019-02-05T00:50:07.947Z,3.41
2019-02-05T00:51:07.902Z,3.29
2019-02-05T00:52:15.772Z,3.21
2019-02-05T00:53:07.882Z,3.26
2019-02-05T00:54:07.908Z,3.22
2019-02-05T00:55:07.945Z,3.14
2019-02-05T00:56:17.373Z,3.19
2019-02-05T00:57:08.806Z,3.13
2019-02-05T00:58:07.826Z,3.23
2019-02-05T00:59:07.839Z,3.14
2019-02-05T01:00:08.080Z,3.25
2019-02-05T01:01:07.918Z,3.26
2019-02-05T01:02:07.779Z,3.22
2019-02-05T01:03:07.824Z,3.25
2019-02-05T01:04:07.761Z,3.26
2019-02-05T01:05:07.746Z,3.16
2019-02-05T01:06:07.792Z,3.26
2019-02-05T01:07:08.768Z,3.23
2019-02-05T01:08:07.712Z,3.22
2019-02-05T01:09:07.746Z,3.29
2019-02-05T01:10:07.719Z,3.16
2019-02-05T01:11:07.779Z,3.13
2019-02-05T01:12:07.687Z,3.16
2019-02-05T01:13:07.707Z,3.18
2019-02-05T01:14:07.660Z,3.22
2019-02-05T01:15:07.621Z,3.18
2019-02-05T01:16:07.647Z,3.19
2019-02-05T01:17:07.677Z,3.28
2019-02-05T01:18:07.621Z,3.23
2019-02-05T01:19:07.611Z,3.28
2019-02-05T01:20:07.624Z,3.26
2019-02-05T01:21:07.730Z,3.25
2019-02-05T01:22:07.550Z,3.16
2019-02-05T01:23:07.600Z,3.23
2019-02-05T01:24:07.580Z,3.21
2019-02-05T01:25:07.528Z,3.28
2019-02-05T01:26:07.513Z,3.26
2019-02-05T01:27:07.552Z,3.34
2019-02-05T01:28:07.541Z,3.21
2019-02-05T01:29:07.484Z,3.19
2019-02-05T01:30:07.492Z,3.25
2019-02-05T01:31:07.482Z,3.31
2019-02-05T01:32:07.452Z,3.32
2019-02-05T01:33:07.536Z,3.25
2019-02-05T01:34:07.446Z,3.18
2019-02-05T01:35:07.419Z,3.29
2019-02-05T01:36:07.432Z,3.18
2019-02-05T01:37:07.413Z,3.31
2019-02-05T01:38:07.391Z,3.41
2019-02-05T01:39:07.466Z,3.18
2019-02-05T01:40:07.521Z,3.34
2019-02-05T01:41:07.351Z,3.32
2019-02-05T01:42:07.348Z,3.19
2019-02-05T01:43:07.340Z,3.26
2019-02-05T01:44:07.344Z,3.26
2019-02-05T01:45:07.419Z,3.23
2019-02-05T01:46:07.412Z,3.31
2019-02-05T01:47:07.329Z,3.22
2019-02-05T01:48:07.255Z,3.26
2019-02-05T01:49:07.266Z,3.31
2019-02-05T01:50:07.259Z,3.28
2019-02-05T01:51:07.276Z,3.28
2019-02-05T01:52:07.221Z,3.32
2019-02-05T01:53:07.219Z,3.18
2019-02-05T01:54:07.213Z,3.23
2019-02-05T01:55:07.214Z,3.21
2019-02-05T01:56:07.289Z,3.32
2019-02-05T01:57:07.187Z,3.29
2019-02-05T01:58:07.173Z,3.19
2019-02-05T01:59:07.167Z,3.22
2019-02-05T02:00:07.160Z,3.22
2019-02-05T02:01:07.211Z,3.37
2019-02-05T02:02:07.132Z,3.26
2019-02-05T02:03:07.156Z,3.29
2019-02-05T02:04:07.224Z,3.26
2019-02-05T02:05:07.104Z,3.26
2019-02-05T02:06:07.158Z,3.26
2019-02-05T02:07:07.188Z,3.26
2019-02-05T02:08:07.147Z,3.26
2019-02-05T02:09:07.033Z,3.26
2019-02-05T02:10:07.150Z,3.23
2019-02-05T02:11:07.101Z,3.13
2019-02-05T02:12:06.993Z,3.18
2019-02-05T02:13:06.983Z,3.13
2019-02-05T02:14:06.979Z,3.18
2019-02-05T02:15:06.990Z,3.23
2019-02-05T02:16:06.983Z,3.23
2019-02-05T02:17:07.021Z,3.21
2019-02-05T02:18:06.966Z,3.19
2019-02-05T02:19:06.930Z,3.23
2019-02-05T02:20:06.924Z,3.22
2019-02-05T02:21:06.907Z,3.23
2019-02-05T02:22:06.892Z,3.23
2019-02-05T02:23:07.027Z,3.13
2019-02-05T02:24:06.883Z,3.19
2019-02-05T02:25:06.881Z,3.26
2019-02-05T02:26:06.863Z,3.18
2019-02-05T02:27:06.851Z,3.22
2019-02-05T02:28:06.823Z,3.21
2019-02-05T02:29:06.987Z,3.11
2019-02-05T02:30:06.794Z,3.26
2019-02-05T02:31:06.800Z,3.18
2019-02-05T02:32:06.810Z,3.18
2019-02-05T02:33:06.826Z,3.19
2019-02-05T02:34:06.754Z,3.28
2019-02-05T02:35:06.748Z,3.16
2019-02-05T02:36:06.744Z,3.16
2019-02-05T02:37:06.836Z,3.18
2019-02-05T02:38:06.769Z,3.16
2019-02-05T02:39:06.723Z,3.22
2019-02-05T02:40:06.746Z,3.13
2019-02-05T02:41:06.705Z,3.14
2019-02-05T02:42:06.711Z,3.21
2019-02-05T02:43:06.738Z,3.11
2019-02-05T02:44:06.653Z,3.28
2019-02-05T02:45:06.639Z,3.28
2019-02-05T02:46:06.642Z,3.25
2019-02-05T02:47:06.697Z,3.11
2019-02-05T02:48:06.643Z,3.14
2019-02-05T02:49:07.280Z,3.19
2019-02-05T02:50:06.610Z,3.14
2019-02-05T02:51:06.594Z,3.16
2019-02-05T02:52:06.583Z,3.13
2019-02-05T02:53:06.617Z,3.14
2019-02-05T02:54:06.549Z,3.23
2019-02-05T02:55:06.513Z,3.26
2019-02-05T02:56:06.575Z,3.23
2019-02-05T02:57:06.520Z,3.19
2019-02-05T02:58:06.617Z,3.16
2019-02-05T02:59:06.519Z,3.16
2019-02-05T03:00:06.471Z,3.16
2019-02-05T03:01:06.503Z,3.13
2019-02-05T03:02:06.472Z,3.16
2019-02-05T03:03:06.458Z,3.18
2019-02-05T03:04:06.572Z,3.14
2019-02-05T03:05:06.429Z,3.16
2019-02-05T03:06:06.434Z,3.19
2019-02-05T03:07:06.394Z,3.21
2019-02-05T03:08:06.398Z,3.23
2019-02-05T03:09:06.386Z,3.23
2019-02-05T03:10:06.448Z,3.22
2019-02-05T03:11:06.376Z,3.28
2019-02-05T03:12:06.553Z,3.22
2019-02-05T03:13:06.319Z,3.21
2019-02-05T03:14:06.360Z,3.22
2019-02-05T03:15:06.416Z,3.28
2019-02-05T03:16:06.319Z,3.21
2019-02-05T03:17:06.300Z,3.22
2019-02-05T03:18:06.288Z,3.19
2019-02-05T03:19:06.267Z,3.23
2019-02-05T03:20:06.308Z,3.28
2019-02-05T03:21:06.325Z,3.26
2019-02-05T03:22:06.281Z,3.28
2019-02-05T03:23:06.371Z,3.25
2019-02-05T03:24:06.202Z,3.29
2019-02-05T03:25:06.179Z,3.14
2019-02-05T03:26:06.306Z,3.16
2019-02-05T03:27:17.424Z,3.13
2019-02-05T03:28:07.295Z,3.14
2019-02-05T03:29:06.193Z,3.19
2019-02-05T03:30:06.152Z,3.16
2019-02-05T03:31:06.185Z,3.25
2019-02-05T03:32:06.140Z,3.16
2019-02-05T03:33:06.377Z,3.14
2019-02-05T03:34:06.105Z,3.28
2019-02-05T03:35:06.155Z,3.23
2019-02-05T03:36:06.254Z,3.19
2019-02-05T03:37:06.058Z,3.28
2019-02-05T03:38:06.124Z,3.23
2019-02-05T03:39:06.058Z,3.16
2019-02-05T03:40:06.099Z,3.11
2019-02-05T03:41:06.023Z,3.19
2019-02-05T03:42:06.068Z,3.16
2019-02-05T03:43:06.075Z,3.21
2019-02-05T03:44:05.989Z,3.16
2019-02-05T03:45:06.085Z,3.22
2019-02-05T03:46:05.968Z,3.28
2019-02-05T03:47:05.957Z,3.11
2019-02-05T03:48:05.951Z,3.13
2019-02-05T03:49:05.952Z,3.18
2019-02-05T03:50:05.917Z,3.13
2019-02-05T03:51:06.032Z,3.28
2019-02-05T03:52:06.064Z,3.23
2019-02-05T03:53:05.906Z,3.26
2019-02-05T03:54:05.876Z,3.25
2019-02-05T03:55:06.790Z,3.23
2019-02-05T03:56:05.860Z,3.28
2019-02-05T03:57:05.889Z,3.25
2019-02-05T03:58:05.846Z,3.32
2019-02-05T03:59:05.884Z,3.31
2019-02-05T04:00:05.805Z,3.23
2019-02-05T04:01:05.804Z,3.18
2019-02-05T04:02:05.841Z,3.18
2019-02-05T04:03:05.926Z,3.29
2019-02-05T04:04:05.814Z,3.22
2019-02-05T04:05:05.765Z,3.22
2019-02-05T04:06:05.817Z,3.25
2019-02-05T04:07:05.763Z,3.19
2019-02-05T04:08:05.802Z,3.19
2019-02-05T04:09:05.820Z,3.26
2019-02-05T04:10:05.732Z,3.26
2019-02-05T04:11:05.711Z,3.22
2019-02-05T04:12:05.673Z,3.28
2019-02-05T04:13:05.674Z,3.25
2019-02-05T04:14:05.726Z,3.25
2019-02-05T04:15:05.652Z,3.29
2019-02-05T04:16:05.707Z,3.13
2019-02-05T04:17:05.636Z,3.16
2019-02-05T04:18:05.622Z,3.10
2019-02-05T04:19:05.646Z,3.14
2019-02-05T04:20:05.592Z,3.13
2019-02-05T04:21:05.602Z,3.13
2019-02-05T04:22:05.696Z,3.19
2019-02-05T04:23:05.554Z,3.19
2019-02-05T04:24:05.552Z,3.21
2019-02-05T04:25:05.577Z,3.21
2019-02-05T04:26:05.578Z,3.13
2019-02-05T04:27:05.583Z,3.21
2019-02-05T04:28:05.513Z,3.28
2019-02-05T04:29:05.507Z,3.28
2019-02-05T04:30:05.498Z,3.26
2019-02-05T04:31:05.535Z,3.28
2019-02-05T04:32:05.452Z,3.23
2019-02-05T04:33:05.446Z,3.26
2019-02-05T04:34:05.418Z,3.28
2019-02-05T04:35:05.424Z,3.18
2019-02-05T04:36:05.445Z,3.18
2019-02-05T04:37:05.393Z,3.19
2019-02-05T04:38:05.582Z,3.22
2019-02-05T04:39:05.423Z,3.14
2019-02-05T04:40:05.373Z,3.18
2019-02-05T04:41:05.382Z,3.10
2019-02-05T04:42:05.381Z,3.19
2019-02-05T04:43:05.331Z,3.29
2019-02-05T04:44:05.334Z,3.23
2019-02-05T04:45:05.377Z,3.21
2019-02-05T04:46:05.493Z,3.19
2019-02-05T04:47:06.296Z,3.25
2019-02-05T04:48:05.278Z,3.26
2019-02-05T04:49:05.384Z,3.18
2019-02-05T04:50:05.327Z,3.22
2019-02-05T04:51:05.264Z,3.26
2019-02-05T04:52:05.250Z,3.11
2019-02-05T04:53:05.269Z,3.26
2019-02-05T04:54:05.210Z,3.21
2019-02-05T04:55:05.204Z,3.25
2019-02-05T04:56:05.250Z,3.22
2019-02-05T04:57:05.196Z,3.21
2019-02-05T04:58:05.213Z,3.21
2019-02-05T04:59:05.177Z,3.26
2019-02-05T05:00:05.226Z,3.22
2019-02-05T05:01:05.162Z,3.22
2019-02-05T05:02:05.277Z,3.32
2019-02-05T05:03:05.108Z,3.32
2019-02-05T05:04:05.799Z,3.32
2019-02-05T05:05:05.119Z,3.22
2019-02-05T05:06:05.187Z,3.28
2019-02-05T05:07:05.797Z,3.32
2019-02-05T05:08:05.075Z,3.28
2019-02-05T05:09:05.074Z,3.41
2019-02-05T05:10:05.037Z,3.36
2019-02-05T05:11:05.040Z,3.25
2019-02-05T05:12:05.078Z,3.21
2019-02-05T05:13:05.020Z,3.23
2019-02-05T05:14:05.003Z,3.36
2019-02-05T05:15:04.990Z,3.23
2019-02-05T05:16:04.978Z,3.32
2019-02-05T05:17:04.969Z,3.29
2019-02-05T05:18:05.025Z,3.31
2019-02-05T05:19:05.009Z,3.29
2019-02-05T05:20:04.932Z,3.26
2019-02-05T05:21:05.042Z,3.25
2019-02-05T05:22:04.920Z,3.26
2019-02-05T05:23:04.999Z,3.31
2019-02-05T05:24:05.039Z,3.36
2019-02-05T05:25:05.803Z,3.36
2019-02-05T05:26:04.881Z,3.37
2019-02-05T05:27:04.921Z,3.32
2019-02-05T05:28:10.173Z,3.42
2019-02-05T05:29:05.900Z,3.50
2019-02-05T05:30:04.849Z,3.50
2019-02-05T05:31:04.824Z,3.36
2019-02-05T05:32:04.893Z,3.48
2019-02-05T05:33:04.850Z,3.45
2019-02-05T05:34:04.760Z,3.44
2019-02-05T05:35:04.832Z,3.36
2019-02-05T05:36:04.758Z,3.50
2019-02-05T05:38:36.205Z,3.47
2019-02-05T05:39:36.189Z,3.50
2019-02-05T05:40:36.206Z,3.45
2019-02-05T05:41:36.197Z,3.42
2019-02-05T05:42:36.143Z,3.47
2019-02-05T05:43:36.172Z,3.36
2019-02-05T05:44:36.085Z,3.51
2019-02-05T05:45:36.077Z,3.48
2019-02-05T05:46:36.147Z,3.48
2019-02-05T05:47:36.036Z,3.44
2019-02-05T05:48:36.047Z,3.41
2019-02-05T05:49:36.066Z,3.41
2019-02-05T05:50:43.302Z,3.37
2019-02-05T05:51:36.006Z,3.32
2019-02-05T05:52:36.011Z,3.34
2019-02-05T05:53:36.148Z,3.50
2019-02-05T05:54:35.985Z,3.41
2019-02-05T05:55:35.973Z,3.50
2019-02-05T05:56:36.033Z,3.50
2019-02-05T05:57:35.927Z,3.55
2019-02-05T05:58:35.978Z,3.55
2019-02-05T05:59:36.013Z,3.56
2019-02-05T06:00:35.909Z,3.56
2019-02-05T06:01:35.897Z,3.58
2019-02-05T06:02:35.952Z,3.56
2019-02-05T06:03:36.323Z,3.50
2019-02-05T06:04:35.908Z,3.40
2019-02-05T06:05:35.884Z,3.41
2019-02-05T06:06:35.835Z,3.45
2019-02-05T06:07:35.889Z,3.42
2019-02-05T06:08:35.908Z,3.47
2019-02-05T06:09:35.806Z,3.47
2019-02-05T06:10:35.806Z,3.53
2019-02-05T06:11:35.792Z,3.41
2019-02-05T06:12:35.778Z,3.40
2019-02-05T06:13:35.824Z,3.40
2019-02-05T06:14:35.768Z,3.31
2019-02-05T06:15:36.154Z,3.28
2019-02-05T06:16:35.749Z,3.32
2019-02-05T06:17:35.730Z,3.37
2019-02-05T06:18:35.724Z,3.32
2019-02-05T06:19:35.697Z,3.53
2019-02-05T06:20:35.923Z,3.36
2019-02-05T06:21:35.693Z,3.45
2019-02-05T06:22:35.704Z,3.37
2019-02-05T06:23:35.701Z,3.50
2019-02-05T06:24:35.635Z,3.42
2019-02-05T06:25:35.626Z,3.47
2019-02-05T06:26:35.758Z,3.45
2019-02-05T06:27:35.642Z,3.41
2019-02-05T06:28:35.589Z,3.42
2019-02-05T06:29:35.620Z,3.32
2019-02-05T06:30:35.591Z,3.34
2019-02-05T06:31:35.571Z,3.41
2019-02-05T06:32:35.600Z,3.31
2019-02-05T06:33:35.548Z,3.41
2019-02-05T06:34:35.542Z,3.29
2019-02-05T06:35:35.519Z,3.29
2019-02-05T06:36:35.566Z,3.34
2019-02-05T06:37:35.589Z,3.36
2019-02-05T06:38:35.492Z,3.34
2019-02-05T06:39:35.483Z,3.28
2019-02-05T06:40:35.462Z,3.22
2019-02-05T06:41:35.468Z,3.22
2019-02-05T06:42:36.210Z,3.25
2019-02-05T06:43:35.498Z,3.19
2019-02-05T06:44:35.449Z,3.34
2019-02-05T06:45:35.431Z,3.31
2019-02-05T06:46:35.416Z,3.25
2019-02-05T06:47:35.555Z,3.37
2019-02-05T06:48:35.386Z,3.16
2019-02-05T06:49:35.421Z,3.18
2019-02-05T06:50:35.427Z,3.37
2019-02-05T06:51:35.345Z,3.21
2019-02-05T06:52:35.347Z,3.26
2019-02-05T06:53:35.321Z,3.25
2019-02-05T06:54:35.380Z,3.19
2019-02-05T06:55:35.313Z,3.21
2019-02-05T06:56:35.334Z,3.14
2019-02-05T06:57:35.289Z,3.29
2019-02-05T06:58:45.737Z,3.16
2019-02-05T06:59:36.334Z,3.19
2019-02-05T07:00:35.244Z,3.10
2019-02-05T07:01:35.229Z,3.13
2019-02-05T07:02:35.227Z,3.13
2019-02-05T07:03:35.227Z,3.18
2019-02-05T07:04:35.188Z,3.18
2019-02-05T07:05:35.309Z,3.14
2019-02-05T07:06:35.291Z,3.08
2019-02-05T07:07:35.161Z,3.08
2019-02-05T07:08:35.166Z,3.13
2019-02-05T07:09:35.263Z,3.11
2019-02-05T07:10:35.247Z,3.05
2019-02-05T07:11:35.156Z,3.13
2019-02-05T07:12:35.227Z,3.10
2019-02-05T07:13:35.111Z,3.14
2019-02-05T07:14:35.088Z,3.22
2019-02-05T07:15:35.069Z,3.10
2019-02-05T07:16:35.152Z,3.13
2019-02-05T07:17:35.054Z,3.10
2019-02-05T07:18:35.103Z,3.16
2019-02-05T07:19:35.044Z,3.11
2019-02-05T07:20:35.023Z,3.10
2019-02-05T07:21:35.030Z,3.18
2019-02-05T07:22:35.059Z,3.16
2019-02-05T07:23:35.200Z,3.16
2019-02-05T07:24:34.977Z,3.16
2019-02-05T07:25:34.984Z,3.26
2019-02-05T07:26:34.961Z,3.26
2019-02-05T07:27:34.947Z,3.22
2019-02-05T07:28:34.965Z,3.16
2019-02-05T07:29:34.962Z,3.25
2019-02-05T07:30:34.916Z,3.28
2019-02-05T07:31:34.898Z,3.18
2019-02-05T07:32:34.896Z,3.14
2019-02-05T07:33:34.918Z,3.14
2019-02-05T07:34:34.900Z,3.14
2019-02-05T07:35:34.897Z,3.18
2019-02-05T07:36:34.942Z,3.22
2019-02-05T07:37:34.835Z,3.34
2019-02-05T07:38:34.833Z,3.29
2019-02-05T07:39:34.836Z,3.41
2019-02-05T07:40:34.864Z,3.23
2019-02-05T07:41:34.864Z,3.25
2019-02-05T07:42:34.780Z,3.28
2019-02-05T07:43:34.782Z,3.23
2019-02-05T07:44:34.767Z,3.25
2019-02-05T07:45:34.740Z,3.28
2019-02-05T07:46:34.732Z,3.25
2019-02-05T07:47:34.754Z,3.26
2019-02-05T07:48:34.715Z,3.31
2019-02-05T07:49:34.710Z,3.36
2019-02-05T07:50:34.675Z,3.40
2019-02-05T07:51:34.741Z,3.32
2019-02-05T07:52:34.677Z,3.32
2019-02-05T07:53:34.650Z,3.45
2019-02-05T07:54:34.636Z,3.41
2019-02-05T07:55:35.222Z,3.50
2019-02-05T07:56:34.739Z,3.51
2019-02-05T07:57:34.610Z,3.48
2019-02-05T07:58:34.650Z,3.41
2019-02-05T07:59:34.594Z,3.48
2019-02-05T08:00:34.605Z,3.34
2019-02-05T08:01:34.596Z,3.45
2019-02-05T08:02:34.718Z,3.44
2019-02-05T08:03:34.540Z,3.55
2019-02-05T08:04:34.546Z,3.51
2019-02-05T08:05:34.529Z,3.53
2019-02-05T08:06:34.556Z,3.50
2019-02-05T08:07:34.497Z,3.45
2019-02-05T08:08:34.530Z,3.48
2019-02-05T08:09:34.542Z,3.48
2019-02-05T08:10:34.466Z,3.42
2019-02-05T08:11:34.498Z,3.51
2019-02-05T08:12:34.451Z,3.34
2019-02-05T08:13:34.438Z,3.47
2019-02-05T08:14:34.463Z,3.40
2019-02-05T08:15:34.489Z,3.44
2019-02-05T08:16:34.394Z,3.44
2019-02-05T08:17:34.400Z,3.45
2019-02-05T08:18:34.504Z,3.50
2019-02-05T08:19:34.536Z,3.45
2019-02-05T08:20:34.367Z,3.53
2019-02-05T08:21:34.384Z,3.48
2019-02-05T08:22:34.484Z,3.47
2019-02-05T08:23:34.317Z,3.47
2019-02-05T08:24:34.387Z,3.45
2019-02-05T08:25:34.329Z,3.31
2019-02-05T08:26:34.353Z,3.45
2019-02-05T08:27:37.058Z,3.36
2019-02-05T08:28:41.025Z,3.32
2019-02-05T08:29:35.348Z,3.45
2019-02-05T08:30:34.229Z,3.47
2019-02-05T08:31:34.236Z,3.48
2019-02-05T08:32:34.258Z,3.44
2019-02-05T08:33:34.206Z,3.50
2019-02-05T08:34:34.235Z,3.50
2019-02-05T08:35:34.406Z,3.53
2019-02-05T08:36:34.179Z,3.51
2019-02-05T08:37:34.246Z,3.62
2019-02-05T08:38:34.413Z,3.60
2019-02-05T08:39:34.186Z,3.60
2019-02-05T08:40:34.143Z,3.56
2019-02-05T08:41:34.289Z,3.62
2019-02-05T08:42:34.163Z,3.65
2019-02-05T08:43:34.730Z,3.60
2019-02-05T08:44:34.094Z,3.68
2019-02-05T08:45:34.120Z,3.62
2019-02-05T08:46:34.127Z,3.60
2019-02-05T08:47:34.164Z,3.63
2019-02-05T08:48:34.091Z,3.63
2019-02-05T08:49:34.093Z,3.65
2019-02-05T08:50:34.037Z,3.68
2019-02-05T08:51:34.020Z,3.63
2019-02-05T08:52:34.069Z,3.63
2019-02-05T08:53:33.982Z,3.70
2019-02-05T08:54:34.043Z,3.77
2019-02-05T08:55:33.968Z,3.77
2019-02-05T08:56:33.968Z,3.76
2019-02-05T08:57:34.063Z,3.77
2019-02-05T08:58:33.975Z,3.73
2019-02-05T08:59:34.019Z,3.78
2019-02-05T09:00:34.030Z,3.88
2019-02-05T09:01:33.906Z,3.78
2019-02-05T09:02:34.148Z,3.83
2019-02-05T09:03:33.877Z,3.74
2019-02-05T09:04:33.876Z,3.81
2019-02-05T09:05:34.092Z,3.81
2019-02-05T09:06:35.527Z,3.88
2019-02-05T09:07:33.906Z,3.80
2019-02-05T09:08:33.839Z,3.83
2019-02-05T09:09:33.886Z,3.86
2019-02-05T09:10:33.814Z,3.94
2019-02-05T09:11:33.769Z,3.92
2019-02-05T09:12:33.805Z,3.95
2019-02-05T09:13:33.765Z,3.95
2019-02-05T09:14:33.825Z,3.98
2019-02-05T09:15:33.864Z,3.99
2019-02-05T09:16:33.742Z,3.99
2019-02-05T09:17:33.719Z,3.99
2019-02-05T09:18:33.721Z,4.04
2019-02-05T09:19:33.711Z,4.06
2019-02-05T09:20:33.699Z,4.05
2019-02-05T09:21:33.777Z,4.10
2019-02-05T09:22:33.665Z,4.13
2019-02-05T09:23:33.665Z,4.10
2019-02-05T09:24:33.649Z,4.10
2019-02-05T09:25:33.687Z,4.02
2019-02-05T09:26:33.631Z,4.13
2019-02-05T09:27:33.624Z,4.17
2019-02-05T09:28:33.614Z,4.22
2019-02-05T09:29:33.799Z,4.17
2019-02-05T09:30:33.588Z,4.19
2019-02-05T09:31:33.600Z,4.22
2019-02-05T09:32:35.115Z,4.22
2019-02-05T09:33:33.603Z,4.20
2019-02-05T09:34:33.555Z,4.26
2019-02-05T09:35:33.534Z,4.17
2019-02-05T09:36:33.576Z,4.23
2019-02-05T09:37:33.635Z,4.13
2019-02-05T09:38:33.489Z,4.28
2019-02-05T09:39:33.604Z,4.24
2019-02-05T09:40:33.483Z,4.20
2019-02-05T09:41:33.539Z,4.30
2019-02-05T09:42:33.455Z,4.35
2019-02-05T09:43:33.505Z,4.35
2019-02-05T09:44:33.485Z,4.31
2019-02-05T09:45:33.414Z,4.34
2019-02-05T09:46:33.468Z,4.32
2019-02-05T09:47:33.397Z,4.23
2019-02-05T09:48:33.473Z,4.32
2019-02-05T09:49:33.409Z,4.32
2019-02-05T09:50:43.754Z,4.35
2019-02-05T09:51:34.358Z,4.38
2019-02-05T09:52:33.344Z,4.24
2019-02-05T09:53:33.425Z,4.31
2019-02-05T09:54:33.381Z,4.35
2019-02-05T09:55:36.007Z,4.40
2019-02-05T09:56:33.295Z,4.42
2019-02-05T09:57:33.288Z,4.37
2019-02-05T09:58:34.238Z,4.45
2019-02-05T09:59:44.852Z,4.49
2019-02-05T10:00:34.357Z,4.38
2019-02-05T10:01:33.233Z,4.34
2019-02-05T10:02:33.306Z,4.35
2019-02-05T10:03:33.214Z,4.44
2019-02-05T10:04:33.255Z,4.32
2019-02-05T10:05:33.313Z,4.40
2019-02-05T10:06:33.165Z,4.32
2019-02-05T10:07:33.174Z,4.40
2019-02-05T10:08:33.235Z,4.34
2019-02-05T10:09:34.248Z,4.34
2019-02-05T10:10:33.133Z,4.37
2019-02-05T10:11:33.129Z,4.49
2019-02-05T10:12:33.106Z,4.42
2019-02-05T10:13:33.223Z,4.44
2019-02-05T10:14:33.108Z,4.48
2019-02-05T10:15:33.196Z,4.45
2019-02-05T10:16:33.132Z,4.41
2019-02-05T10:17:33.115Z,4.37
2019-02-05T10:18:33.146Z,4.44
2019-02-05T10:19:33.054Z,4.42
2019-02-05T10:20:33.106Z,4.50
2019-02-05T10:21:33.076Z,4.41
2019-02-05T10:22:33.038Z,4.45
2019-02-05T10:23:33.023Z,4.48
2019-02-05T10:24:33.099Z,4.53
2019-02-05T10:25:33.056Z,4.49
2019-02-05T10:26:32.973Z,4.44
2019-02-05T10:27:33.065Z,4.48
2019-02-05T10:28:33.579Z,4.45
2019-02-05T10:29:32.945Z,4.42
2019-02-05T10:30:32.924Z,4.42
2019-02-05T10:31:33.005Z,4.41
2019-02-05T10:32:32.969Z,4.37
2019-02-05T10:33:32.922Z,4.44
2019-02-05T10:34:34.416Z,4.55
2019-02-05T10:35:32.880Z,4.59
2019-02-05T10:36:32.866Z,4.55
2019-02-05T10:37:32.882Z,4.62
2019-02-05T10:38:32.908Z,4.68
2019-02-05T10:39:32.898Z,4.67
2019-02-05T10:40:32.804Z,4.60
2019-02-05T10:41:32.781Z,4.71
2019-02-05T10:43:33.894Z,4.70
2019-02-05T10:44:32.780Z,4.60
2019-02-05T10:45:32.744Z,4.58
2019-02-05T10:46:32.832Z,4.67
2019-02-05T10:47:33.245Z,4.63
2019-02-05T10:48:32.793Z,4.71
2019-02-05T10:49:32.864Z,4.59
2019-02-05T10:50:32.728Z,4.71
2019-02-05T10:51:32.776Z,4.75
2019-02-05T10:52:32.691Z,4.75
2019-02-05T10:53:32.672Z,4.77
2019-02-05T10:54:35.338Z,4.87
2019-02-05T10:55:32.723Z,4.87
2019-02-05T10:56:32.757Z,4.87
2019-02-05T10:57:32.605Z,4.84
2019-02-05T10:58:32.633Z,4.99
2019-02-05T10:59:32.594Z,4.96
2019-02-05T11:00:32.567Z,4.99
2019-02-05T11:01:32.597Z,4.96
2019-02-05T11:02:32.548Z,4.96
2019-02-05T11:03:32.537Z,4.94
2019-02-05T11:04:32.533Z,4.93
2019-02-05T11:05:32.538Z,4.92
2019-02-05T11:06:32.508Z,4.75
2019-02-05T11:07:32.672Z,4.62
2019-02-05T11:08:32.537Z,4.66
2019-02-05T11:09:32.477Z,4.73
2019-02-05T11:10:32.461Z,4.78
2019-02-05T11:11:32.446Z,4.78
2019-02-05T11:12:32.461Z,4.70
2019-02-05T11:13:32.507Z,4.75
2019-02-05T11:14:32.578Z,4.77
2019-02-05T11:15:32.435Z,4.73
2019-02-05T11:16:32.397Z,4.80
2019-02-05T11:17:32.415Z,4.86
2019-02-05T11:18:32.400Z,4.96
2019-02-05T11:19:32.493Z,4.94
2019-02-05T11:20:32.438Z,4.99
2019-02-05T11:21:32.357Z,5.02
2019-02-05T11:22:32.453Z,5.07
2019-02-05T11:23:33.248Z,5.05
2019-02-05T11:24:32.306Z,5.11
2019-02-05T11:25:32.318Z,5.08
2019-02-05T11:26:32.286Z,5.04
2019-02-05T11:27:32.274Z,4.99
2019-02-05T11:28:32.280Z,5.02
2019-02-05T11:29:32.293Z,5.05
2019-02-05T11:30:32.244Z,5.07
2019-02-05T11:31:32.229Z,5.05
2019-02-05T11:32:32.222Z,5.12
2019-02-05T11:33:32.218Z,5.15
2019-02-05T11:34:32.213Z,5.17
2019-02-05T11:35:32.206Z,5.20
2019-02-05T11:36:32.167Z,5.32
2019-02-05T11:37:32.164Z,5.28
2019-02-05T11:38:32.151Z,5.33
2019-02-05T11:39:32.178Z,5.26
2019-02-05T11:40:32.149Z,5.20
2019-02-05T11:41:32.222Z,5.14
2019-02-05T11:42:32.101Z,5.17
2019-02-05T11:43:32.103Z,5.15
2019-02-05T11:44:32.101Z,5.20
2019-02-05T11:45:32.127Z,5.18
2019-02-05T11:46:32.080Z,5.30
2019-02-05T11:47:32.052Z,5.23
2019-02-05T11:48:32.038Z,5.32
2019-02-05T11:49:32.028Z,5.28
2019-02-05T11:50:32.013Z,5.33
2019-02-05T11:51:39.454Z,5.29
2019-02-05T11:52:31.989Z,5.36
2019-02-05T11:53:31.982Z,5.30
2019-02-05T11:54:31.967Z,5.29
2019-02-05T11:55:31.960Z,5.28
2019-02-05T11:56:31.943Z,5.26
2019-02-05T11:57:31.952Z,5.25
2019-02-05T11:58:31.924Z,5.25
2019-02-05T11:59:31.911Z,5.21
2019-02-05T12:00:33.055Z,5.28
2019-02-05T12:01:39.139Z,5.28
2019-02-05T12:02:33.075Z,5.26
2019-02-05T12:03:32.015Z,5.26
2019-02-05T12:04:31.867Z,5.25
2019-02-05T12:05:31.849Z,5.23
2019-02-05T12:06:31.849Z,5.20
2019-02-05T12:07:31.856Z,5.23
2019-02-05T12:08:31.814Z,5.10
2019-02-05T12:09:31.802Z,5.11
2019-02-05T12:10:31.818Z,5.18
2019-02-05T12:11:31.780Z,5.12
2019-02-05T12:12:31.801Z,5.12
2019-02-05T12:13:31.803Z,5.15
2019-02-05T12:14:31.801Z,5.21
2019-02-05T12:15:31.728Z,5.25
2019-02-05T12:16:31.723Z,5.21
2019-02-05T12:17:31.753Z,5.21
2019-02-05T12:18:31.698Z,5.25
2019-02-05T12:19:31.694Z,5.15
2019-02-05T12:20:31.670Z,5.05
2019-02-05T12:21:31.675Z,5.05
2019-02-05T12:22:31.659Z,5.05
2019-02-05T12:23:31.662Z,5.05
2019-02-05T12:24:31.629Z,4.99
2019-02-05T12:25:31.628Z,5.08
2019-02-05T12:26:31.613Z,5.10
2019-02-05T12:27:31.605Z,5.02
2019-02-05T12:28:31.630Z,4.97
2019-02-05T12:29:31.574Z,4.97
2019-02-05T12:30:31.564Z,4.99
2019-02-05T12:31:31.560Z,5.10
2019-02-05T12:32:31.538Z,5.08
2019-02-05T12:33:31.691Z,5.10
2019-02-05T12:34:31.518Z,5.11
2019-02-05T12:35:31.506Z,5.18
2019-02-05T12:36:31.619Z,5.17
2019-02-05T12:37:31.538Z,5.15
2019-02-05T12:38:31.487Z,5.15
2019-02-05T12:39:31.484Z,5.14
2019-02-05T12:40:31.457Z,5.18
2019-02-05T12:41:31.486Z,5.26
2019-02-05T12:42:31.427Z,5.18
2019-02-05T12:43:31.441Z,5.26
2019-02-05T12:44:31.406Z,5.18
2019-02-05T12:45:31.404Z,5.14
2019-02-05T12:46:31.390Z,5.12
2019-02-05T12:47:31.443Z,5.15
2019-02-05T12:48:31.412Z,5.15
2019-02-05T12:49:31.359Z,5.17
2019-02-05T12:50:31.362Z,5.23
2019-02-05T12:51:31.329Z,5.17
2019-02-05T12:52:31.326Z,5.23
2019-02-05T12:53:31.342Z,5.17
2019-02-05T12:54:31.295Z,5.28
2019-02-05T12:55:31.283Z,5.25
2019-02-05T12:56:31.271Z,5.26
2019-02-05T12:57:31.295Z,5.23
2019-02-05T12:58:31.259Z,5.33
2019-02-05T12:59:31.286Z,5.32
2019-02-05T13:00:31.271Z,5.32
2019-02-05T13:01:31.221Z,5.33
2019-02-05T13:02:31.212Z,5.32
2019-02-05T13:03:31.189Z,5.35
2019-02-05T13:04:31.184Z,5.35
2019-02-05T13:05:31.197Z,5.29
2019-02-05T13:06:31.162Z,5.35
2019-02-05T13:07:31.145Z,5.29
2019-02-05T13:08:31.137Z,5.29
2019-02-05T13:09:31.128Z,5.23
2019-02-05T13:10:31.142Z,5.20
2019-02-05T13:11:31.107Z,5.23
2019-02-05T13:12:31.091Z,5.25
2019-02-05T13:13:31.084Z,5.26
2019-02-05T13:14:31.074Z,5.28
2019-02-05T13:15:31.099Z,5.32
2019-02-05T13:16:31.047Z,5.30
2019-02-05T13:17:31.033Z,5.23
2019-02-05T13:18:31.032Z,5.26
2019-02-05T13:19:31.050Z,5.23
2019-02-05T13:20:31.029Z,5.26